createdAt,value
2023-02-27T00:02:46.198Z,13.80
2023-02-27T00:05:33.198Z,13.80
2023-02-27T00:08:20.197Z,13.80
2023-02-27T00:11:00.679Z,13.80
2023-02-27T00:13:47.213Z,13.80
2023-02-27T00:16:27.776Z,13.80
2023-02-27T00:19:14.202Z,13.80
2023-02-27T00:22:01.212Z,13.80
2023-02-27T00:24:41.314Z,13.80
2023-02-27T00:27:28.170Z,13.80
2023-02-27T00:30:16.166Z,13.80
2023-02-27T00:33:03.784Z,13.80
2023-02-27T00:35:43.180Z,13.80
2023-02-27T00:38:30.191Z,13.80
2023-02-27T00:41:17.192Z,13.80
2023-02-27T00:44:04.248Z,13.80
2023-02-27T00:46:44.220Z,13.80
2023-02-27T00:49:38.170Z,13.80
2023-02-27T00:52:25.192Z,13.80
2023-02-27T00:55:05.247Z,13.80
2023-02-27T00:57:52.219Z,13.70
2023-02-27T01:00:33.277Z,13.80
2023-02-27T01:03:20.218Z,13.80
2023-02-27T01:06:00.236Z,13.80
2023-02-27T01:08:47.174Z,13.70
2023-02-27T01:11:27.504Z,13.70
2023-02-27T01:14:14.181Z,13.70
2023-02-27T01:16:54.249Z,13.70
2023-02-27T01:19:41.206Z,13.70
2023-02-27T01:22:21.237Z,13.60
2023-02-27T01:25:08.188Z,13.60
2023-02-27T01:27:49.180Z,13.60
2023-02-27T01:30:29.298Z,13.60
2023-02-27T01:33:16.193Z,13.60
2023-02-27T01:35:56.258Z,13.60
2023-02-27T01:38:43.188Z,13.60
2023-02-27T01:41:23.242Z,13.60
2023-02-27T01:44:13.198Z,13.60
2023-02-27T01:46:53.234Z,13.60
2023-02-27T01:49:48.197Z,13.60
2023-02-27T01:52:37.186Z,13.60
2023-02-27T01:55:21.258Z,13.60
2023-02-27T01:58:08.213Z,13.60
2023-02-27T02:00:49.320Z,13.60
2023-02-27T02:03:59.215Z,13.60
2023-02-27T02:06:50.180Z,13.50
2023-02-27T02:09:41.208Z,13.50
2023-02-27T02:12:23.242Z,13.50
2023-02-27T02:15:12.229Z,13.50
2023-02-27T02:18:16.233Z,13.50
2023-02-27T02:21:40.210Z,13.50
2023-02-27T02:24:20.258Z,13.50
2023-02-27T02:27:35.185Z,13.50
2023-02-27T02:30:56.285Z,13.40
2023-02-27T02:34:04.299Z,13.40
2023-02-27T02:37:12.207Z,13.40
2023-02-27T02:40:13.191Z,13.40
2023-02-27T02:43:17.194Z,13.40
2023-02-27T02:46:27.214Z,13.40
2023-02-27T02:49:20.258Z,13.30
2023-02-27T02:52:45.180Z,13.40
2023-02-27T02:55:37.239Z,13.40
2023-02-27T02:58:50.181Z,13.40
2023-02-27T03:01:44.234Z,13.30
2023-02-27T03:04:38.359Z,13.40
2023-02-27T03:07:30.252Z,13.30
2023-02-27T03:10:33.188Z,13.30
2023-02-27T03:13:19.254Z,13.30
2023-02-27T03:16:17.206Z,13.30
2023-02-27T03:19:06.177Z,13.30
2023-02-27T03:22:05.511Z,13.30
2023-02-27T03:25:09.186Z,13.30
2023-02-27T03:28:06.197Z,13.30
2023-02-27T03:31:02.386Z,13.30
2023-02-27T03:34:01.401Z,13.30
2023-02-27T03:36:54.254Z,13.30
2023-02-27T03:39:52.188Z,13.30
2023-02-27T03:42:43.253Z,13.30
2023-02-27T03:46:17.262Z,13.30
2023-02-27T03:48:58.248Z,13.30
2023-02-27T03:51:45.193Z,13.30
2023-02-27T03:54:32.252Z,13.30
2023-02-27T03:57:22.185Z,13.30
2023-02-27T04:00:02.258Z,13.30
2023-02-27T04:02:57.232Z,13.30
2023-02-27T04:05:38.274Z,13.30
2023-02-27T04:08:39.175Z,13.20
2023-02-27T04:11:45.219Z,13.20
2023-02-27T04:14:41.192Z,13.20
2023-02-27T04:17:37.222Z,13.20
2023-02-27T04:20:40.183Z,13.20
2023-02-27T04:23:29.260Z,13.20
2023-02-27T04:26:34.187Z,13.20
2023-02-27T04:29:26.237Z,13.20
2023-02-27T04:32:36.272Z,13.20
2023-02-27T04:35:39.197Z,13.20
2023-02-27T04:38:43.275Z,13.20
2023-02-27T04:41:37.199Z,13.20
2023-02-27T04:44:25.238Z,13.20
2023-02-27T04:47:07.191Z,13.20
2023-02-27T04:50:09.189Z,13.20
2023-02-27T04:53:06.635Z,13.20
2023-02-27T04:56:00.188Z,13.20
2023-02-27T04:58:55.201Z,13.20
2023-02-27T05:01:43.271Z,13.20
2023-02-27T05:04:33.196Z,13.20
2023-02-27T05:07:17.259Z,13.20
2023-02-27T05:10:15.191Z,13.20
2023-02-27T05:13:00.237Z,13.20
2023-02-27T05:15:55.208Z,13.20
2023-02-27T05:18:35.248Z,13.20
2023-02-27T05:21:37.191Z,13.20
2023-02-27T05:24:46.199Z,13.20
2023-02-27T05:27:49.186Z,13.20
2023-02-27T05:30:50.328Z,13.20
2023-02-27T05:33:50.191Z,13.20
2023-02-27T05:36:48.198Z,13.20
2023-02-27T05:39:38.202Z,13.20
2023-02-27T05:42:33.179Z,13.20
2023-02-27T05:45:22.407Z,13.20
2023-02-27T05:48:26.189Z,13.20
2023-02-27T05:51:10.506Z,13.20
2023-02-27T05:54:07.202Z,13.20
2023-02-27T05:56:59.209Z,13.20
2023-02-27T05:59:46.238Z,13.20
2023-02-27T06:02:33.236Z,13.20
2023-02-27T06:05:16.274Z,13.20
2023-02-27T06:08:03.170Z,13.20
2023-02-27T06:10:44.251Z,13.20
2023-02-27T06:13:32.175Z,13.10
2023-02-27T06:16:16.362Z,13.10
2023-02-27T06:19:04.987Z,13.10
2023-02-27T06:21:45.230Z,13.10
2023-02-27T06:24:33.198Z,13.10
2023-02-27T06:27:13.246Z,13.10
2023-02-27T06:30:01.208Z,13.10
2023-02-27T06:32:48.187Z,13.10
2023-02-27T06:35:29.734Z,13.10
2023-02-27T06:38:23.194Z,13.10
2023-02-27T06:41:10.263Z,13.20
2023-02-27T06:44:05.197Z,13.20
2023-02-27T06:46:45.230Z,13.20
2023-02-27T06:49:32.185Z,13.30
2023-02-27T06:52:12.249Z,13.60
2023-02-27T06:54:59.207Z,13.80
2023-02-27T06:57:46.184Z,13.90
2023-02-27T07:00:33.154Z,14.10
2023-02-27T07:03:13.254Z,14.20
2023-02-27T07:06:00.182Z,14.40
2023-02-27T07:09:01.865Z,14.50
2023-02-27T07:11:47.180Z,14.60
2023-02-27T07:14:27.254Z,14.70
2023-02-27T07:17:14.173Z,14.70
2023-02-27T07:19:54.614Z,14.80
2023-02-27T07:22:41.187Z,14.90
2023-02-27T07:25:21.244Z,15.00
2023-02-27T07:28:08.273Z,15.10
2023-02-27T07:30:48.303Z,15.20
2023-02-27T07:33:35.169Z,15.30
2023-02-27T07:36:15.329Z,15.40
2023-02-27T07:39:02.186Z,15.60
2023-02-27T07:41:42.243Z,15.80
2023-02-27T07:44:31.182Z,16.00
2023-02-27T07:47:11.377Z,16.20
2023-02-27T07:49:58.173Z,16.30
2023-02-27T07:52:45.175Z,16.50
2023-02-27T07:55:32.197Z,16.60
2023-02-27T07:58:12.251Z,16.70
2023-02-27T08:01:01.234Z,16.80
2023-02-27T08:03:41.256Z,16.90
2023-02-27T08:06:29.605Z,17.00
2023-02-27T08:09:10.777Z,17.00
2023-02-27T08:11:57.179Z,17.10
2023-02-27T08:14:37.266Z,17.20
2023-02-27T08:17:24.187Z,17.50
2023-02-27T08:20:04.975Z,17.80
2023-02-27T08:22:51.200Z,18.30
2023-02-27T08:25:31.332Z,18.70
2023-02-27T08:28:18.203Z,19.20
2023-02-27T08:31:05.243Z,19.60
2023-02-27T08:33:45.707Z,19.90
2023-02-27T08:36:32.201Z,20.20
2023-02-27T08:39:19.198Z,20.50
2023-02-27T08:41:59.241Z,20.80
2023-02-27T08:44:46.179Z,21.10
2023-02-27T08:47:33.306Z,21.40
2023-02-27T08:50:20.455Z,21.60
2023-02-27T08:53:00.217Z,21.80
2023-02-27T08:55:41.043Z,22.10
2023-02-27T08:58:28.308Z,22.30
2023-02-27T09:01:15.241Z,22.50
2023-02-27T09:03:55.618Z,22.70
2023-02-27T09:06:43.219Z,23.00
2023-02-27T09:09:23.882Z,23.20
2023-02-27T09:12:10.217Z,23.40
2023-02-27T09:14:50.503Z,23.60
2023-02-27T09:17:37.225Z,23.80
2023-02-27T09:20:25.309Z,24.00
2023-02-27T09:23:05.748Z,24.20
2023-02-27T09:25:52.208Z,24.40
2023-02-27T09:28:39.182Z,24.60
2023-02-27T09:31:26.464Z,24.70
2023-02-27T09:34:06.789Z,24.90
2023-02-27T09:36:53.194Z,25.00
2023-02-27T09:39:33.692Z,25.10
2023-02-27T09:42:33.190Z,25.20
2023-02-27T09:45:36.467Z,25.30
2023-02-27T09:48:45.198Z,25.50
2023-02-27T09:51:40.206Z,25.60
2023-02-27T09:54:27.211Z,25.60
2023-02-27T09:57:19.225Z,25.70
2023-02-27T10:00:20.682Z,25.80
2023-02-27T10:03:13.253Z,25.90
2023-02-27T10:06:39.314Z,25.90
2023-02-27T10:09:35.196Z,26.00
2023-02-27T10:12:28.200Z,26.10
2023-02-27T10:15:11.292Z,26.10
2023-02-27T10:18:20.028Z,26.20
2023-02-27T10:21:15.281Z,26.10
2023-02-27T10:24:08.231Z,25.80
2023-02-27T10:26:52.839Z,25.60
2023-02-27T10:29:46.229Z,25.60
2023-02-27T10:32:29.346Z,25.50
2023-02-27T10:35:38.227Z,25.40
2023-02-27T10:38:29.280Z,25.40
2023-02-27T10:41:19.265Z,25.30
2023-02-27T10:44:11.234Z,25.00
2023-02-27T10:46:52.265Z,24.80
2023-02-27T10:49:40.218Z,24.50
2023-02-27T10:52:27.229Z,24.20
2023-02-27T10:55:24.292Z,23.90
2023-02-27T10:58:12.228Z,23.60
2023-02-27T11:01:11.299Z,23.40
2023-02-27T11:04:03.236Z,23.40
2023-02-27T11:06:50.215Z,23.30
2023-02-27T11:09:33.188Z,23.20
2023-02-27T11:12:32.228Z,23.00
2023-02-27T11:15:15.728Z,22.90
2023-02-27T11:18:02.227Z,22.70
2023-02-27T11:20:50.769Z,22.60
2023-02-27T11:23:32.233Z,22.40
2023-02-27T11:26:20.969Z,22.30
2023-02-27T11:29:31.234Z,22.20
2023-02-27T11:32:22.292Z,22.00
2023-02-27T11:35:02.298Z,21.90
2023-02-27T11:37:50.242Z,21.80
2023-02-27T11:40:38.958Z,21.70
2023-02-27T11:43:29.226Z,21.50
2023-02-27T11:46:46.993Z,21.20
2023-02-27T11:49:46.239Z,20.90
2023-02-27T11:52:35.281Z,20.80
2023-02-27T11:55:27.236Z,20.60
2023-02-27T11:58:29.349Z,20.40
2023-02-27T12:01:32.244Z,20.20
2023-02-27T12:04:38.240Z,20.10
2023-02-27T12:07:37.273Z,19.90
2023-02-27T12:10:37.305Z,19.80
2023-02-27T12:13:35.232Z,19.70
2023-02-27T12:16:40.412Z,19.60
2023-02-27T12:19:37.233Z,19.50
2023-02-27T12:22:33.394Z,19.40
2023-02-27T12:25:53.216Z,19.30
2023-02-27T12:28:46.237Z,19.30
2023-02-27T12:31:40.871Z,19.30
2023-02-27T12:34:59.231Z,19.30
2023-02-27T12:37:46.223Z,19.30
2023-02-27T12:40:38.262Z,19.40
2023-02-27T12:44:01.221Z,19.40
2023-02-27T12:47:00.248Z,19.40
2023-02-27T12:50:11.269Z,19.30
2023-02-27T12:53:30.269Z,19.30
2023-02-27T12:56:19.337Z,19.40
2023-02-27T12:59:28.246Z,19.40
2023-02-27T13:02:45.337Z,19.40
2023-02-27T13:05:49.253Z,19.50
2023-02-27T13:08:51.387Z,19.60
2023-02-27T13:12:04.220Z,19.60
2023-02-27T13:15:21.298Z,19.60
2023-02-27T13:18:13.237Z,19.50
2023-02-27T13:21:11.333Z,19.40
2023-02-27T13:24:08.234Z,19.30
2023-02-27T13:26:57.313Z,19.20
2023-02-27T13:29:54.239Z,19.20
2023-02-27T13:32:51.040Z,19.10
2023-02-27T13:36:04.301Z,19.10
2023-02-27T13:39:00.294Z,19.10
2023-02-27T13:41:48.254Z,19.10
2023-02-27T13:44:28.871Z,19.00
2023-02-27T13:47:44.259Z,19.00
2023-02-27T13:50:31.294Z,19.00
2023-02-27T13:53:24.250Z,19.00
2023-02-27T13:56:37.249Z,19.00
2023-02-27T13:59:20.308Z,19.00
2023-02-27T14:02:16.260Z,18.90
2023-02-27T14:05:09.257Z,18.90
2023-02-27T14:07:55.293Z,18.80
2023-02-27T14:10:44.244Z,18.80
2023-02-27T14:13:57.330Z,18.70
2023-02-27T14:16:48.201Z,18.70
2023-02-27T14:19:54.257Z,18.70
2023-02-27T14:22:39.300Z,18.60
2023-02-27T14:25:41.266Z,18.60
2023-02-27T14:28:51.247Z,18.60
2023-02-27T14:31:40.356Z,18.50
2023-02-27T14:34:28.230Z,18.50
2023-02-27T14:37:14.740Z,18.50
2023-02-27T14:40:03.425Z,18.40
2023-02-27T14:42:58.229Z,18.40
2023-02-27T14:45:38.369Z,18.40
2023-02-27T14:48:34.264Z,18.40
2023-02-27T14:51:29.531Z,18.30
2023-02-27T14:54:25.255Z,18.30
2023-02-27T14:57:11.307Z,18.30
2023-02-27T15:00:00.256Z,18.30
2023-02-27T15:02:49.249Z,18.30
2023-02-27T15:05:34.704Z,18.20
2023-02-27T15:08:37.250Z,18.20
2023-02-27T15:11:29.545Z,18.20
2023-02-27T15:14:14.554Z,18.20
2023-02-27T15:17:02.275Z,18.20
2023-02-27T15:19:42.327Z,18.10
2023-02-27T15:22:39.338Z,18.10
2023-02-27T15:25:46.253Z,18.10
2023-02-27T15:28:42.312Z,18.00
2023-02-27T15:31:30.512Z,18.00
2023-02-27T15:34:14.503Z,18.00
2023-02-27T15:37:05.267Z,18.00
2023-02-27T15:39:47.073Z,18.00
2023-02-27T15:42:53.276Z,17.90
2023-02-27T15:45:42.287Z,17.90
2023-02-27T15:48:30.273Z,17.90
2023-02-27T15:51:18.329Z,17.90
2023-02-27T15:54:01.257Z,17.90
2023-02-27T15:56:48.284Z,17.90
2023-02-27T15:59:28.306Z,17.80
2023-02-27T16:02:35.372Z,17.80
2023-02-27T16:05:50.379Z,17.80
2023-02-27T16:08:31.605Z,17.80
2023-02-27T16:11:18.265Z,17.80
2023-02-27T16:13:58.707Z,17.80
2023-02-27T16:16:48.354Z,17.70
2023-02-27T16:19:32.574Z,17.70
2023-02-27T16:22:25.279Z,17.70
2023-02-27T16:25:25.256Z,17.60
2023-02-27T16:28:12.408Z,17.60
2023-02-27T16:31:00.386Z,17.60
2023-02-27T16:33:43.245Z,17.60
2023-02-27T16:36:26.999Z,17.50
2023-02-27T16:39:15.252Z,17.50
2023-02-27T16:41:57.323Z,17.50
2023-02-27T16:44:44.257Z,17.50
2023-02-27T16:47:32.829Z,17.40
2023-02-27T16:50:35.253Z,17.40
2023-02-27T16:53:23.276Z,17.40
2023-02-27T16:56:03.326Z,17.40
2023-02-27T16:58:51.251Z,17.30
2023-02-27T17:01:33.888Z,17.30
2023-02-27T17:04:25.800Z,17.30
2023-02-27T17:07:15.269Z,17.30
2023-02-27T17:09:55.941Z,17.20
2023-02-27T17:12:43.936Z,17.20
2023-02-27T17:15:30.274Z,17.20
2023-02-27T17:18:24.268Z,17.10
2023-02-27T17:21:05.305Z,17.20
2023-02-27T17:23:53.282Z,17.10
2023-02-27T17:26:35.164Z,17.10
2023-02-27T17:29:23.270Z,17.10
2023-02-27T17:32:04.041Z,17.00
2023-02-27T17:34:50.266Z,17.00
2023-02-27T17:37:30.529Z,17.00
2023-02-27T17:40:19.278Z,17.00
2023-02-27T17:42:59.796Z,16.90
2023-02-27T17:45:46.299Z,16.90
2023-02-27T17:48:26.410Z,16.90
2023-02-27T17:51:22.263Z,16.90
2023-02-27T17:54:05.334Z,16.90
2023-02-27T17:56:53.268Z,16.90
2023-02-27T17:59:33.762Z,16.90
2023-02-27T18:02:21.278Z,16.80
2023-02-27T18:05:11.332Z,16.80
2023-02-27T18:07:51.787Z,16.80
2023-02-27T18:10:39.260Z,16.80
2023-02-27T18:13:19.419Z,16.80
2023-02-27T18:16:06.529Z,16.80
2023-02-27T18:18:48.780Z,16.80
2023-02-27T18:21:39.968Z,16.80
2023-02-27T18:24:22.308Z,16.70
2023-02-27T18:27:09.278Z,16.70
2023-02-27T18:29:56.320Z,16.70
2023-02-27T18:32:43.372Z,16.70
2023-02-27T18:35:23.290Z,16.70
2023-02-27T18:38:10.273Z,16.60
2023-02-27T18:40:57.270Z,16.60
2023-02-27T18:43:42.903Z,16.60
2023-02-27T18:46:29.719Z,16.50
2023-02-27T18:49:16.313Z,16.50
2023-02-27T18:52:03.280Z,16.50
2023-02-27T18:54:43.383Z,16.50
2023-02-27T18:57:30.290Z,16.50
2023-02-27T19:00:11.360Z,16.40
2023-02-27T19:02:58.340Z,16.40
2023-02-27T19:05:45.275Z,16.40
2023-02-27T19:08:29.104Z,16.40
2023-02-27T19:11:15.277Z,16.40
2023-02-27T19:14:04.261Z,16.40
2023-02-27T19:16:52.291Z,16.30
2023-02-27T19:19:33.144Z,16.40
2023-02-27T19:22:20.270Z,16.40
2023-02-27T19:25:01.007Z,16.30
2023-02-27T19:27:47.279Z,16.30
2023-02-27T19:30:34.286Z,16.30
2023-02-27T19:33:14.326Z,16.30
2023-02-27T19:36:01.369Z,16.30
2023-02-27T19:38:41.337Z,16.30
2023-02-27T19:41:28.269Z,16.30
2023-02-27T19:44:08.473Z,16.30
2023-02-27T19:46:58.309Z,16.30
2023-02-27T19:49:38.339Z,16.30
2023-02-27T19:52:25.270Z,16.20
2023-02-27T19:55:12.275Z,16.20
2023-02-27T19:57:53.121Z,16.20
2023-02-27T20:00:40.341Z,16.20
2023-02-27T20:03:22.218Z,16.20
2023-02-27T20:06:12.835Z,16.20
2023-02-27T20:08:53.810Z,16.20
2023-02-27T20:11:45.395Z,16.20
2023-02-27T20:14:32.266Z,16.20
2023-02-27T20:17:19.281Z,16.20
2023-02-27T20:20:06.277Z,16.20
2023-02-27T20:22:50.217Z,16.20
2023-02-27T20:25:37.277Z,16.20
2023-02-27T20:28:17.318Z,16.10
2023-02-27T20:31:04.285Z,16.10
2023-02-27T20:33:44.321Z,16.10
2023-02-27T20:36:31.289Z,16.00
2023-02-27T20:39:12.336Z,15.80
2023-02-27T20:41:59.280Z,15.70
2023-02-27T20:44:39.273Z,15.60
2023-02-27T20:47:26.300Z,15.50
2023-02-27T20:50:21.281Z,15.40
2023-02-27T20:53:08.270Z,15.40
2023-02-27T20:56:02.297Z,15.30
2023-02-27T20:58:49.272Z,15.20
2023-02-27T21:01:38.284Z,15.20
2023-02-27T21:04:42.730Z,15.10
2023-02-27T21:07:25.266Z,15.10
2023-02-27T21:10:13.290Z,15.10
2023-02-27T21:13:00.268Z,15.00
2023-02-27T21:15:40.828Z,15.00
2023-02-27T21:18:27.283Z,15.00
2023-02-27T21:21:10.328Z,15.00
2023-02-27T21:23:57.296Z,14.90
2023-02-27T21:26:39.020Z,14.90
2023-02-27T21:29:27.281Z,14.90
2023-02-27T21:32:14.294Z,14.90
2023-02-27T21:34:54.401Z,14.90
2023-02-27T21:37:41.268Z,14.80
2023-02-27T21:40:28.285Z,14.80
2023-02-27T21:43:15.273Z,14.80
2023-02-27T21:46:02.347Z,14.70
2023-02-27T21:48:50.281Z,14.70
2023-02-27T21:51:44.561Z,14.60
2023-02-27T21:54:31.288Z,14.60
2023-02-27T21:57:19.269Z,14.60
2023-02-27T22:00:06.290Z,14.60
2023-02-27T22:02:53.420Z,14.60
2023-02-27T22:05:40.261Z,14.50
2023-02-27T22:08:20.336Z,14.50
2023-02-27T22:11:08.274Z,14.50
2023-02-27T22:13:48.343Z,14.50
2023-02-27T22:16:35.277Z,14.50
2023-02-27T22:19:22.590Z,14.50
2023-02-27T22:22:09.277Z,14.50
2023-02-27T22:24:49.331Z,14.50
2023-02-27T22:27:36.293Z,14.40
2023-02-27T22:30:17.335Z,14.40
2023-02-27T22:33:04.295Z,14.40
2023-02-27T22:35:44.407Z,14.40
2023-02-27T22:38:31.304Z,14.40
2023-02-27T22:41:14.338Z,14.40
2023-02-27T22:44:02.302Z,14.40
2023-02-27T22:46:45.448Z,14.30
2023-02-27T22:49:32.291Z,14.30
2023-02-27T22:52:26.294Z,14.30
2023-02-27T22:55:14.278Z,14.30
2023-02-27T22:57:56.456Z,14.30
2023-02-27T23:00:44.270Z,14.30
2023-02-27T23:03:24.362Z,14.30
2023-02-27T23:06:17.299Z,14.20
2023-02-27T23:08:58.403Z,14.20
2023-02-27T23:11:45.290Z,14.20
2023-02-27T23:14:26.383Z,14.20
2023-02-27T23:17:13.269Z,14.20
2023-02-27T23:19:53.339Z,14.20
2023-02-27T23:22:40.272Z,14.20
2023-02-27T23:25:20.352Z,14.20
2023-02-27T23:28:08.269Z,14.10
2023-02-27T23:30:55.290Z,14.10
2023-02-27T23:33:42.305Z,14.10
2023-02-27T23:36:22.331Z,14.10
2023-02-27T23:39:10.318Z,14.10
2023-02-27T23:41:50.421Z,14.10
2023-02-27T23:44:55.298Z,14.10
2023-02-27T23:47:41.624Z,14.20
2023-02-27T23:50:31.295Z,14.20
2023-02-27T23:53:13.296Z,14.20
2023-02-27T23:56:00.283Z,14.20
2023-02-27T23:58:40.358Z,14.20
